Time;durP1;ratioP1;P1;durP2;ratioP2;P2;SDS_P1;SDS_P2;PMS_P1;PMS_P2;Temp;Humidity;BMP_temperature;BMP_pressure;BME280_temperature;BME280_humidity;BME280_pressure;Samples;Min_cycle;Max_cycle;Signal;HPM_P1;HPM_P2
2021/10/27 00:00:16;;;;;;;;;;;;;;;8.02;86.55;97821.47;30002;983;1881;-56
2021/10/27 00:00:47;;;;;;;;;;;;;;;8.02;86.32;97822.28;30002;983;1863;-62
2021/10/27 00:01:18;;;;;;;;;;;;;;;8.03;86.35;97823.91;30002;983;1872;-62
2021/10/27 00:01:49;;;;;;;;;;;;;;;8.05;86.57;97821.78;30002;983;1876;-62
2021/10/27 00:02:19;;;;;;;;;;;;;;;8.04;86.42;97820.13;30002;983;1881;-62
2021/10/27 00:02:50;;;;;;;;;;;;;;;8.06;86.51;97823.41;30002;965;1791;-62
2021/10/27 00:03:21;;;;;;;;;;;;;;;8.06;86.48;97818.00;30002;982;1868;-61
2021/10/27 00:03:52;;;;;;;;;;;;;;;8.07;86.40;97822.34;30002;982;1868;-62
2021/10/27 00:04:23;;;;;;;;;;;;;;;8.07;86.15;97819.63;30001;982;1881;-62
2021/10/27 00:04:54;;;;;;;;;;;;;;;8.09;86.37;97819.38;30001;982;1877;-61
2021/10/27 00:05:25;;;;;;;;;;;;;;;8.10;86.08;97823.72;30001;982;1881;-62
2021/10/27 00:05:56;;;;;;;;;;;;;;;8.11;86.02;97819.13;30001;983;1876;-61
2021/10/27 00:06:28;;;;;;;;;;;;;;;8.10;86.07;97825.59;30001;983;1880;-61
2021/10/27 00:06:59;;;;;;;;;;;;;;;8.11;86.02;97821.84;30001;983;1876;-61
2021/10/27 00:07:30;;;;;;;;;;;;;;;8.11;86.08;97825.34;30001;983;1867;-62
2021/10/27 00:08:00;;;;;;;;;;;;;;;8.12;86.01;97835.09;30001;983;1867;-62
2021/10/27 00:08:31;;;;;;;;;;;;;;;8.11;85.97;97819.94;30001;983;1881;-62
2021/10/27 00:09:03;;;;;;;;;;;;;;;8.12;86.24;97828.87;30001;983;1876;-62
2021/10/27 00:09:34;;;;;;;;;;;;;;;8.12;85.93;97820.75;30001;983;1881;-60
2021/10/27 00:10:05;;;;;;;;;;;;;;;8.13;86.09;97822.41;30001;982;1877;-63
2021/10/27 00:10:36;;;;;;;;;;;;;;;8.11;85.87;97824.53;30001;982;1881;-62
2021/10/27 00:11:07;;;;;;;;;;;;;;;8.10;86.02;97818.31;30001;982;1877;-62
2021/10/27 00:11:38;;;;;;;;;;;;;;;8.10;85.85;97822.91;30001;982;1881;-62
2021/10/27 00:12:09;;;;;;;;;;;;;;;8.07;85.75;97824.22;30001;982;1877;-63
2021/10/27 00:12:40;;;;;;;;;;;;;;;8.05;86.05;97821.78;30001;982;1868;-62
2021/10/27 00:13:11;;;;;;;;;;;;;;;8.05;85.90;97813.66;30001;983;1867;-62
2021/10/27 00:13:43;;;;;;;;;;;;;;;8.05;86.08;97816.38;30001;983;1880;-61
2021/10/27 00:14:14;;;;;;;;;;;;;;;8.04;86.09;97820.13;30001;983;1876;-61
2021/10/27 00:14:44;;;;;;;;;;;;;;;8.02;86.04;97816.88;30001;983;1880;-61
2021/10/27 00:15:16;;;;;;;;;;;;;;;8.03;86.14;97820.41;30001;983;1876;-62
2021/10/27 00:15:47;;;;;;;;;;;;;;;8.01;86.12;97817.94;30001;983;1881;-61
2021/10/27 00:16:18;;;;;;;;;;;;;;;8.02;86.17;97827.69;30001;983;1876;-61
2021/10/27 00:16:49;;;;;;;;;;;;;;;8.00;85.94;97813.59;30001;983;1881;-62
2021/10/27 00:17:19;;;;;;;;;;;;;;;8.00;85.91;97819.00;30001;983;1876;-61
2021/10/27 00:17:50;;;;;;;;;;;;;;;8.00;86.21;97813.59;30001;982;1868;-60
2021/10/27 00:18:21;;;;;;;;;;;;;;;7.99;86.17;97828.19;30001;982;1868;-60
2021/10/27 00:18:52;;;;;;;;;;;;;;;8.00;85.91;97818.19;30001;982;1881;-62
2021/10/27 00:19:22;;;;;;;;;;;;;;;8.00;86.09;97823.59;30001;982;1877;-61
2021/10/27 00:19:53;;;;;;;;;;;;;;;7.98;85.91;97821.16;30001;982;1881;-62
2021/10/27 00:20:24;;;;;;;;;;;;;;;7.97;86.05;97816.81;30001;982;1877;-60
2021/10/27 00:20:55;;;;;;;;;;;;;;;7.96;85.89;97817.91;30001;983;1880;-62
2021/10/27 00:21:26;;;;;;;;;;;;;;;7.98;86.25;97821.16;30001;983;1876;-61
2021/10/27 00:21:59;;;;;;;;;;;;;;;7.98;86.05;97821.16;30001;983;1880;-60
2021/10/27 00:22:30;;;;;;;;;;;;;;;7.98;86.31;97814.94;30001;983;1876;-61
2021/10/27 00:23:01;;;;;;;;;;;;;;;7.97;86.03;97811.41;30001;983;1867;-61
2021/10/27 00:23:32;;;;;;;;;;;;;;;7.97;86.21;97819.50;30001;983;1868;-60
2021/10/27 00:24:03;;;;;;;;;;;;;;;7.97;86.19;97818.72;30001;983;1881;-61
2021/10/27 00:24:34;;;;;;;;;;;;;;;7.96;86.01;97817.09;30001;983;1876;-61
2021/10/27 00:25:06;;;;;;;;;;;;;;;7.95;86.06;97815.47;30001;982;1881;-60
2021/10/27 00:25:37;;;;;;;;;;;;;;;7.96;86.30;97828.72;30001;982;1877;-61
2021/10/27 00:26:08;;;;;;;;;;;;;;;7.94;86.20;97814.66;30001;982;1881;-62
2021/10/27 00:26:39;;;;;;;;;;;;;;;7.95;86.36;97821.69;30001;982;1877;-61
2021/10/27 00:27:10;;;;;;;;;;;;;;;7.94;86.10;97825.44;30001;982;1881;-61
2021/10/27 00:27:41;;;;;;;;;;;;;;;7.95;86.19;97821.69;30001;982;1877;-60
2021/10/27 00:28:12;;;;;;;;;;;;;;;7.94;86.49;97825.44;30001;982;1868;-61
2021/10/27 00:28:43;;;;;;;;;;;;;;;7.96;86.50;97826.03;30001;983;1867;-60
2021/10/27 00:29:14;;;;;;;;;;;;;;;7.95;86.46;97827.09;30001;983;1880;-61
2021/10/27 00:29:45;;;;;;;;;;;;;;;7.96;86.53;97817.91;30001;983;1876;-59
2021/10/27 00:30:15;;;;;;;;;;;;;;;7.95;86.27;97816.28;30001;983;1881;-62
2021/10/27 00:30:46;;;;;;;;;;;;;;;7.97;86.62;97818.72;30001;983;1876;-61
2021/10/27 00:31:18;;;;;;;;;;;;;;;7.96;86.35;97812.50;30001;983;1881;-60
2021/10/27 00:31:48;;;;;;;;;;;;;;;7.98;86.44;97818.44;30001;983;1876;-60
2021/10/27 00:32:19;;;;;;;;;;;;;;;7.99;86.31;97822.78;30001;983;1868;-61
2021/10/27 00:32:50;;;;;;;;;;;;;;;8.00;86.21;97819.00;30001;982;1868;-62
2021/10/27 00:33:21;;;;;;;;;;;;;;;8.00;86.42;97829.81;30001;982;1881;-59
2021/10/27 00:33:52;;;;;;;;;;;;;;;8.01;86.38;97819.81;30001;982;1877;-61
2021/10/27 00:34:23;;;;;;;;;;;;;;;8.01;86.15;97817.94;30001;982;1881;-62
2021/10/27 00:34:54;;;;;;;;;;;;;;;8.02;86.52;97818.75;30001;982;1877;-60
2021/10/27 00:35:26;;;;;;;;;;;;;;;8.03;86.24;97812.28;30001;982;1881;-61
2021/10/27 00:35:57;;;;;;;;;;;;;;;8.03;86.13;97817.69;30001;983;1863;-60
2021/10/27 00:36:28;;;;;;;;;;;;;;;8.03;86.22;97812.28;30001;983;1872;-60
2021/10/27 00:36:58;;;;;;;;;;;;;;;8.04;86.45;97814.72;30001;983;1876;-57
2021/10/27 00:37:30;;;;;;;;;;;;;;;8.04;86.14;97814.72;30001;983;1880;-61
2021/10/27 00:38:01;;;;;;;;;;;;;;;8.04;86.40;97820.13;30001;983;1877;-62
2021/10/27 00:38:32;;;;;;;;;;;;;;;8.04;86.43;97814.72;30001;983;1881;-60
2021/10/27 00:39:03;;;;;;;;;;;;;;;8.05;86.36;97813.66;30001;983;1877;-60
2021/10/27 00:39:34;;;;;;;;;;;;;;;8.06;86.11;97817.19;30001;983;1882;-62
2021/10/27 00:40:06;;;;;;;;;;;;;;;8.08;86.36;97815.03;30001;982;1877;-62
2021/10/27 00:40:37;;;;;;;;;;;;;;;8.08;86.31;97815.03;30001;982;1881;-61
2021/10/27 00:41:08;;;;;;;;;;;;;;;8.07;86.02;97814.22;30001;982;1864;-61
2021/10/27 00:41:43;;;;;;;;;;;;;;;8.08;85.89;97809.62;30001;982;1872;-61
2021/10/27 00:42:14;;;;;;;;;;;;;;;8.07;86.09;97818.81;30001;982;1877;-62
2021/10/27 00:42:45;;;;;;;;;;;;;;;8.05;86.09;97813.66;30001;983;1880;-62
2021/10/27 00:43:16;;;;;;;;;;;;;;;8.06;85.99;97820.69;30001;983;1876;-62
2021/10/27 00:43:47;;;;;;;;;;;;;;;8.05;85.57;97813.66;30001;983;1880;-60
2021/10/27 00:44:21;;;;;;;;;;;;;;;8.05;85.61;97816.38;30001;983;1876;-61
2021/10/27 00:44:52;;;;;;;;;;;;;;;8.02;85.46;97806.06;30001;983;1867;-62
2021/10/27 00:45:23;;;;;;;;;;;;;;;7.99;85.67;97806.56;30001;983;1867;-61
2021/10/27 00:45:54;;;;;;;;;;;;;;;7.96;85.57;97809.81;30001;983;1881;-61
2021/10/27 00:46:26;;;;;;;;;;;;;;;7.96;85.79;97817.09;30001;983;1876;-61
2021/10/27 00:47:01;;;;;;;;;;;;;;;7.95;85.69;97808.16;30001;983;1867;-62
2021/10/27 00:47:31;;;;;;;;;;;;;;;7.93;85.89;97802.19;30001;983;1867;-61
2021/10/27 00:48:02;;;;;;;;;;;;;;;7.88;85.86;97809.44;30001;982;1867;-62
2021/10/27 00:48:37;;;;;;;;;;;;;;;7.88;85.88;97801.31;30001;982;1868;-60
2021/10/27 00:49:08;;;;;;;;;;;;;;;7.85;85.62;97808.06;30001;982;1881;-62
2021/10/27 00:49:40;;;;;;;;;;;;;;;7.84;86.15;97811.81;30001;982;1877;-61
2021/10/27 00:50:11;;;;;;;;;;;;;;;7.83;86.06;97807.47;30001;983;1880;-61
2021/10/27 00:50:43;;;;;;;;;;;;;;;7.82;86.19;97807.72;30001;983;1876;-62
2021/10/27 00:51:14;;;;;;;;;;;;;;;7.80;85.66;97817.97;30001;983;1880;-61
2021/10/27 00:51:45;;;;;;;;;;;;;;;7.78;85.87;97814.72;30001;983;1876;-61
2021/10/27 00:52:17;;;;;;;;;;;;;;;7.76;85.90;97814.97;30001;983;1881;-57
2021/10/27 00:52:48;;;;;;;;;;;;;;;7.75;86.29;97810.62;30001;983;1863;-62
2021/10/27 00:53:19;;;;;;;;;;;;;;;7.70;86.18;97808.69;30001;983;1872;-60
2021/10/27 00:53:54;;;;;;;;;;;;;;;7.67;86.30;97808.34;30001;966;1889;-61
2021/10/27 00:54:25;;;;;;;;;;;;;;;7.62;86.43;97811.03;30001;983;1872;-62
2021/10/27 00:54:57;;;;;;;;;;;;;;;7.58;86.41;97810.72;30001;983;1876;-62
2021/10/27 00:55:28;;;;;;;;;;;;;;;7.55;86.82;97810.38;30001;982;1881;-62
2021/10/27 00:55:59;;;;;;;;;;;;;;;7.54;86.74;97811.47;30001;982;1876;-60
2021/10/27 00:56:32;;;;;;;;;;;;;;;7.51;86.64;97809.25;30001;982;1881;-61
2021/10/27 00:57:03;;;;;;;;;;;;;;;7.50;86.85;97808.44;30001;982;1877;-62
2021/10/27 00:57:36;;;;;;;;;;;;;;;7.48;86.66;97810.56;30001;982;1881;-62
2021/10/27 00:58:07;;;;;;;;;;;;;;;7.47;87.01;97813.50;30001;983;1876;-62
2021/10/27 00:58:38;;;;;;;;;;;;;;;7.44;87.22;97798.63;30001;983;1880;-62
2021/10/27 00:59:09;;;;;;;;;;;;;;;7.44;87.06;97808.63;30001;983;1863;-61
2021/10/27 00:59:41;;;;;;;;;;;;;;;7.42;87.09;97805.34;30001;983;1872;-63
2021/10/27 01:00:13;;;;;;;;;;;;;;;7.39;87.13;97817.47;30001;983;1876;-60
2021/10/27 01:00:44;;;;;;;;;;;;;;;7.36;nan;97816.06;30001;983;1880;-61
2021/10/27 01:01:15;;;;;;;;;;;;;;;7.35;87.48;97817.12;30001;983;1876;-62
2021/10/27 01:01:46;;;;;;;;;;;;;;;7.35;87.38;97813.63;30001;983;1880;-61
2021/10/27 01:02:17;;;;;;;;;;;;;;;7.33;87.21;97813.87;30001;983;1876;-62
2021/10/27 01:02:48;;;;;;;;;;;;;;;7.33;87.69;97813.87;30001;982;1881;-62
2021/10/27 01:03:20;;;;;;;;;;;;;;;7.31;87.53;97813.31;30001;982;1876;-61
2021/10/27 01:03:51;;;;;;;;;;;;;;;7.30;87.72;97808.97;30001;982;1881;-61
2021/10/27 01:04:22;;;;;;;;;;;;;;;7.29;87.47;97810.03;30001;982;1863;-61
2021/10/27 01:04:53;;;;;;;;;;;;;;;7.29;87.53;97811.91;30001;982;1872;-62
2021/10/27 01:05:23;;;;;;;;;;;;;;;7.27;87.63;97809.50;30001;983;1876;-62
2021/10/27 01:05:55;;;;;;;;;;;;;;;7.29;87.55;97806.50;30001;983;1880;-56
2021/10/27 01:06:25;;;;;;;;;;;;;;;7.28;87.49;97811.09;30001;983;1876;-61
2021/10/27 01:06:57;;;;;;;;;;;;;;;7.27;87.55;97811.38;30001;983;1880;-62
2021/10/27 01:07:27;;;;;;;;;;;;;;;7.27;87.70;97809.50;30001;983;1876;-61
2021/10/27 01:07:58;;;;;;;;;;;;;;;7.27;87.84;97814.06;30001;983;1880;-62
2021/10/27 01:08:31;;;;;;;;;;;;;;;7.27;87.73;97814.88;30001;983;1876;-56
2021/10/27 01:09:03;;;;;;;;;;;;;;;7.28;87.86;97811.09;30001;983;1867;-58
2021/10/27 01:09:35;;;;;;;;;;;;;;;7.27;87.70;97812.19;30001;983;1868;-61
2021/10/27 01:10:07;;;;;;;;;;;;;;;7.27;87.57;97808.69;30001;983;1881;-61
2021/10/27 01:10:37;;;;;;;;;;;;;;;7.28;87.68;97811.09;30001;982;1876;-62
2021/10/27 01:11:08;;;;;;;;;;;;;;;7.28;87.76;97810.28;30001;982;1881;-60
2021/10/27 01:11:40;;;;;;;;;;;;;;;7.26;87.61;97805.16;30001;986;1867;-61
2021/10/27 01:12:12;;;;;;;;;;;;;;;7.25;87.54;97811.63;30001;982;1881;-61
2021/10/27 01:12:43;;;;;;;;;;;;;;;7.26;87.70;97815.97;30001;982;1877;-62
2021/10/27 01:13:14;;;;;;;;;;;;;;;7.26;87.74;97812.44;30001;983;1880;-62
2021/10/27 01:13:47;;;;;;;;;;;;;;;7.27;87.50;97820.28;30001;983;1876;-62
2021/10/27 01:14:18;;;;;;;;;;;;;;;7.27;87.60;97820.28;30001;983;1867;-60
2021/10/27 01:14:49;;;;;;;;;;;;;;;7.26;87.65;97810.56;30001;983;1867;-61
2021/10/27 01:15:20;;;;;;;;;;;;;;;7.27;87.61;97817.59;30001;983;1868;-62
2021/10/27 01:15:51;;;;;;;;;;;;;;;7.25;87.59;97811.63;30001;983;1868;-61
2021/10/27 01:16:22;;;;;;;;;;;;;;;7.24;87.64;97818.09;30001;983;1881;-61
2021/10/27 01:16:53;;;;;;;;;;;;;;;7.23;87.69;97821.84;30001;983;1876;-61
2021/10/27 01:17:23;;;;;;;;;;;;;;;7.23;87.88;97815.63;30001;982;1881;-61
2021/10/27 01:17:54;;;;;;;;;;;;;;;7.22;87.88;97822.91;30001;982;1863;-61
2021/10/27 01:18:26;;;;;;;;;;;;;;;7.20;88.18;97819.66;30001;982;1859;-61
2021/10/27 01:18:57;;;;;;;;;;;;;;;7.19;88.06;97818.00;30001;982;1877;-62
2021/10/27 01:19:29;;;;;;;;;;;;;;;7.20;88.20;97821.53;30001;982;1881;-61
2021/10/27 01:20:01;;;;;;;;;;;;;;;7.19;88.51;97818.00;30001;982;1877;-61
2021/10/27 01:20:31;;;;;;;;;;;;;;;7.20;88.50;97824.22;30001;983;1880;-61
2021/10/27 01:21:02;;;;;;;;;;;;;;;7.19;88.51;97823.41;30001;983;1876;-61
2021/10/27 01:21:33;;;;;;;;;;;;;;;7.19;88.36;97818.00;30001;983;1880;-61
2021/10/27 01:22:04;;;;;;;;;;;;;;;7.21;88.68;97825.84;30001;983;1876;-62
2021/10/27 01:22:37;;;;;;;;;;;;;;;7.21;88.64;97815.88;30001;983;1867;-61
2021/10/27 01:23:07;;;;;;;;;;;;;;;7.22;88.67;97822.91;30001;983;1867;-62
2021/10/27 01:23:38;;;;;;;;;;;;;;;7.22;88.69;97814.81;30001;983;1881;-62
2021/10/27 01:24:12;;;;;;;;;;;;;;;7.23;88.62;97813.75;30001;983;1876;-61
2021/10/27 01:24:43;;;;;;;;;;;;;;;7.24;88.60;97810.00;30001;982;1881;-62
2021/10/27 01:25:14;;;;;;;;;;;;;;;7.25;88.53;97824.31;30001;982;1876;-62
2021/10/27 01:25:45;;;;;;;;;;;;;;;7.25;88.45;97817.03;30001;982;1881;-61
2021/10/27 01:26:15;;;;;;;;;;;;;;;7.27;88.65;97819.47;30001;982;1877;-62
2021/10/27 01:26:46;;;;;;;;;;;;;;;7.27;88.66;97814.06;30001;982;1881;-61
2021/10/27 01:27:17;;;;;;;;;;;;;;;7.27;88.64;97816.78;30001;982;1877;-61
2021/10/27 01:27:48;;;;;;;;;;;;;;;7.27;88.65;97814.06;30001;982;1868;-61
2021/10/27 01:28:19;;;;;;;;;;;;;;;7.28;88.51;97815.69;30001;983;1867;-62
2021/10/27 01:28:50;;;;;;;;;;;;;;;7.27;88.53;97814.88;30001;983;1880;-57
2021/10/27 01:29:21;;;;;;;;;;;;;;;7.28;88.75;97819.19;30001;983;1876;-61
2021/10/27 01:29:52;;;;;;;;;;;;;;;7.29;88.67;97817.31;30001;983;1880;-61
2021/10/27 01:30:24;;;;;;;;;;;;;;;7.29;88.73;97818.12;30001;983;1876;-60
2021/10/27 01:30:55;;;;;;;;;;;;;;;7.29;88.44;97812.72;30001;983;1880;-61
2021/10/27 01:31:27;;;;;;;;;;;;;;;7.30;88.31;97811.66;30001;983;1876;-61
2021/10/27 01:31:57;;;;;;;;;;;;;;;7.30;88.39;97819.75;30001;983;1881;-62
2021/10/27 01:32:31;;;;;;;;;;;;;;;7.31;88.67;97810.59;30001;982;1876;-61
2021/10/27 01:33:02;;;;;;;;;;;;;;;7.32;88.44;97812.22;30001;982;1868;-62
2021/10/27 01:33:33;;;;;;;;;;;;;;;7.32;88.31;97819.53;30001;982;1868;-61
2021/10/27 01:34:03;;;;;;;;;;;;;;;7.32;88.37;97808.72;30001;982;1881;-61
2021/10/27 01:34:35;;;;;;;;;;;;;;;7.33;88.36;97808.47;30001;983;1876;-61
2021/10/27 01:35:06;;;;;;;;;;;;;;;7.33;88.50;97813.06;30001;983;1880;-62
2021/10/27 01:35:38;;;;;;;;;;;;;;;7.32;88.49;97812.22;30001;983;1876;-62
2021/10/27 01:36:10;;;;;;;;;;;;;;;7.32;88.54;97809.53;30001;983;1867;-60
2021/10/27 01:36:41;;;;;;;;;;;;;;;7.33;88.27;97813.06;30001;983;1868;-61
2021/10/27 01:37:15;;;;;;;;;;;;;;;7.32;88.25;97817.62;30001;983;1881;-61
2021/10/27 01:37:46;;;;;;;;;;;;;;;7.34;88.19;97809.28;30001;983;1876;-62
2021/10/27 01:38:17;;;;;;;;;;;;;;;7.34;88.20;97814.69;30001;983;1881;-61
2021/10/27 01:38:48;;;;;;;;;;;;;;;7.35;88.46;97811.75;30001;983;1876;-61
2021/10/27 01:39:19;;;;;;;;;;;;;;;7.35;88.47;97808.22;30001;983;1881;-61
2021/10/27 01:39:50;;;;;;;;;;;;;;;7.34;88.21;97810.09;30001;982;1876;-60
2021/10/27 01:40:21;;;;;;;;;;;;;;;7.35;88.55;97811.75;30001;982;1868;-62
2021/10/27 01:40:52;;;;;;;;;;;;;;;7.35;88.19;97811.75;30001;982;1868;-60
2021/10/27 01:41:23;;;;;;;;;;;;;;;7.35;88.49;97814.44;30001;982;1881;-61
2021/10/27 01:41:54;;;;;;;;;;;;;;;7.34;88.22;97810.09;30001;982;1877;-59
2021/10/27 01:42:25;;;;;;;;;;;;;;;7.35;88.56;97805.53;30001;983;1880;-62
2021/10/27 01:42:56;;;;;;;;;;;;;;;7.36;88.22;97812.56;30001;983;1876;-62
2021/10/27 01:43:27;;;;;;;;;;;;;;;7.36;88.23;97807.97;30001;983;1880;-61
2021/10/27 01:43:58;;;;;;;;;;;;;;;7.36;88.21;97807.97;30001;983;1876;-62
2021/10/27 01:44:29;;;;;;;;;;;;;;;7.37;88.16;97817.72;30001;983;1867;-61
2021/10/27 01:45:00;;;;;;;;;;;;;;;7.36;88.26;97810.69;30001;983;1868;-62
2021/10/27 01:45:31;;;;;;;;;;;;;;;7.37;88.18;97809.59;30001;983;1881;-62
2021/10/27 01:46:02;;;;;;;;;;;;;;;7.37;88.40;97812.31;30001;983;1876;-61
2021/10/27 01:46:37;;;;;;;;;;;;;;;7.38;88.51;97805.84;30001;983;1881;-62
2021/10/27 01:47:08;;;;;;;;;;;;;;;7.38;88.11;97805.84;30001;982;1876;-62
2021/10/27 01:47:43;;;;;;;;;;;;;;;7.38;88.38;97811.25;30001;982;1868;-61
2021/10/27 01:48:14;;;;;;;;;;;;;;;7.38;88.33;97813.13;30001;982;1868;-60
2021/10/27 01:48:44;;;;;;;;;;;;;;;7.38;88.04;97811.25;30001;982;1881;-62
2021/10/27 01:49:15;;;;;;;;;;;;;;;7.38;88.38;97815.81;30001;982;1877;-61
2021/10/27 01:49:47;;;;;;;;;;;;;;;7.38;88.42;97808.53;30001;983;1867;-62
2021/10/27 01:50:18;;;;;;;;;;;;;;;7.37;88.30;97809.59;30001;983;1867;-61
2021/10/27 01:50:49;;;;;;;;;;;;;;;7.38;88.36;97808.53;30001;983;1880;-61
2021/10/27 01:51:20;;;;;;;;;;;;;;;7.38;88.28;97811.25;30001;983;1833;-62
2021/10/27 01:51:51;;;;;;;;;;;;;;;7.38;88.35;97813.94;30001;983;1881;-62
2021/10/27 01:52:22;;;;;;;;;;;;;;;7.38;88.18;97805.03;30001;983;1876;-61
2021/10/27 01:52:53;;;;;;;;;;;;;;;7.37;88.36;97798.81;30001;983;1881;-62
2021/10/27 01:53:24;;;;;;;;;;;;;;;7.37;88.21;97809.59;30001;983;1876;-61
2021/10/27 01:53:55;;;;;;;;;;;;;;;7.36;88.30;97813.37;30001;983;1841;-62
2021/10/27 01:54:26;;;;;;;;;;;;;;;7.37;88.23;97809.59;30001;983;1876;-62
2021/10/27 01:54:57;;;;;;;;;;;;;;;7.36;88.28;97805.28;30001;982;1868;-62
2021/10/27 01:55:28;;;;;;;;;;;;;;;7.36;88.15;97807.97;30001;982;1854;-61
2021/10/27 01:55:59;;;;;;;;;;;;;;;7.37;88.20;97812.31;30001;982;1881;-61
2021/10/27 01:56:30;;;;;;;;;;;;;;;7.37;88.16;97809.59;30001;982;1877;-60
2021/10/27 01:57:01;;;;;;;;;;;;;;;7.36;88.27;97812.56;30001;982;1881;-61
2021/10/27 01:57:32;;;;;;;;;;;;;;;7.36;88.20;97807.16;30001;983;1876;-62
2021/10/27 01:58:03;;;;;;;;;;;;;;;7.36;88.21;97801.75;30001;983;1880;-62
2021/10/27 01:58:34;;;;;;;;;;;;;;;7.35;88.32;97806.34;30001;983;1876;-61
2021/10/27 01:59:05;;;;;;;;;;;;;;;7.36;88.44;97810.69;30001;983;1880;-63
2021/10/27 01:59:35;;;;;;;;;;;;;;;7.35;88.12;97809.03;30001;983;1876;-62
2021/10/27 02:00:07;;;;;;;;;;;;;;;7.34;88.40;97810.09;30001;983;1868;-62
2021/10/27 02:00:38;;;;;;;;;;;;;;;7.34;88.43;97812.81;30001;983;1867;-62
2021/10/27 02:01:09;;;;;;;;;;;;;;;7.33;88.53;97810.34;30001;983;1881;-62
2021/10/27 02:01:40;;;;;;;;;;;;;;;7.33;88.59;97803.06;30001;983;1876;-61
2021/10/27 02:02:12;;;;;;;;;;;;;;;7.31;88.58;97810.59;30001;983;1881;-62
2021/10/27 02:02:43;;;;;;;;;;;;;;;7.31;88.61;97810.59;30001;982;1876;-62
2021/10/27 02:03:14;;;;;;;;;;;;;;;7.30;88.53;97811.66;30001;982;1881;-62
2021/10/27 02:03:45;;;;;;;;;;;;;;;7.30;88.65;97802.75;30001;982;1877;-62
2021/10/27 02:04:16;;;;;;;;;;;;;;;7.28;88.45;97808.41;30001;982;1881;-62
2021/10/27 02:04:47;;;;;;;;;;;;;;;7.27;88.44;97814.06;30001;983;1876;-62
2021/10/27 02:05:17;;;;;;;;;;;;;;;7.24;88.50;97815.38;30001;983;1867;-63
2021/10/27 02:05:48;;;;;;;;;;;;;;;7.20;88.52;97808.84;30001;983;1867;-63
2021/10/27 02:06:19;;;;;;;;;;;;;;;7.17;88.26;97809.34;30001;967;1907;-62
2021/10/27 02:06:50;;;;;;;;;;;;;;;7.16;88.43;97810.41;30001;983;1876;-61
2021/10/27 02:07:21;;;;;;;;;;;;;;;7.16;88.51;97817.69;30001;983;1881;-62
2021/10/27 02:07:52;;;;;;;;;;;;;;;7.14;88.58;97817.94;30001;983;1877;-61
2021/10/27 02:08:23;;;;;;;;;;;;;;;7.10;88.79;97814.09;30001;983;1881;-61
2021/10/27 02:08:53;;;;;;;;;;;;;;;7.06;88.64;97815.66;30001;983;1877;-62
2021/10/27 02:09:24;;;;;;;;;;;;;;;7.05;88.74;97811.31;30001;982;1881;-60
2021/10/27 02:09:55;;;;;;;;;;;;;;;7.05;88.75;97809.44;30001;982;1863;-62
2021/10/27 02:10:26;;;;;;;;;;;;;;;7.06;88.77;97812.94;30001;982;1872;-58
2021/10/27 02:10:58;;;;;;;;;;;;;;;7.06;89.02;97807.56;30001;982;1876;-60
2021/10/27 02:11:28;;;;;;;;;;;;;;;7.06;88.75;97802.16;30001;982;1881;-59
2021/10/27 02:12:00;;;;;;;;;;;;;;;7.05;88.87;97808.63;30001;982;1877;-60
2021/10/27 02:12:30;;;;;;;;;;;;;;;7.03;88.89;97811.56;30001;983;1880;-61
2021/10/27 02:13:01;;;;;;;;;;;;;;;7.04;88.79;97804.28;30001;983;1863;-61
2021/10/27 02:13:33;;;;;;;;;;;;;;;7.04;89.05;97810.50;30001;983;1871;-60
2021/10/27 02:14:04;;;;;;;;;;;;;;;7.04;89.24;97809.69;30001;962;1897;-60
2021/10/27 02:14:35;;;;;;;;;;;;;;;7.02;89.15;97811.81;30001;983;1880;-65
2021/10/27 02:15:07;;;;;;;;;;;;;;;7.03;89.35;97808.88;30001;983;1876;-65
2021/10/27 02:15:38;;;;;;;;;;;;;;;7.04;89.24;97806.97;30001;983;1867;-65
2021/10/27 02:16:09;;;;;;;;;;;;;;;7.05;89.42;97805.91;30001;983;1867;-64
2021/10/27 02:16:40;;;;;;;;;;;;;;;7.06;89.35;97807.56;30001;982;1868;-62
2021/10/27 02:17:11;;;;;;;;;;;;;;;7.06;89.16;97802.16;30001;982;1868;-63
2021/10/27 02:17:42;;;;;;;;;;;;;;;7.07;89.43;97809.19;30001;982;1868;-61
2021/10/27 02:18:12;;;;;;;;;;;;;;;7.07;89.49;97811.88;30001;982;1868;-62
2021/10/27 02:18:43;;;;;;;;;;;;;;;7.04;89.23;97805.09;30001;982;1881;-61
2021/10/27 02:19:14;;;;;;;;;;;;;;;7.03;89.08;97813.44;30001;982;1863;-61
2021/10/27 02:19:45;;;;;;;;;;;;;;;7.03;89.24;97814.25;30001;982;1859;-61
2021/10/27 02:20:16;;;;;;;;;;;;;;;7.02;89.23;97806.41;30001;983;1876;-60
2021/10/27 02:20:47;;;;;;;;;;;;;;;7.00;89.18;97806.66;30001;983;1880;-57
2021/10/27 02:21:19;;;;;;;;;;;;;;;7.00;88.99;97808.53;30001;983;1876;-61
2021/10/27 02:21:49;;;;;;;;;;;;;;;7.01;89.29;97810.19;30001;983;1881;-61
2021/10/27 02:22:21;;;;;;;;;;;;;;;7.02;89.08;97806.41;30001;983;1876;-61
2021/10/27 02:22:52;;;;;;;;;;;;;;;7.02;88.93;97803.72;30001;983;1880;-56
2021/10/27 02:23:23;;;;;;;;;;;;;;;7.01;89.20;97810.19;30001;983;1876;-61
2021/10/27 02:23:53;;;;;;;;;;;;;;;7.00;89.32;97811.25;30001;983;1881;-60
2021/10/27 02:24:25;;;;;;;;;;;;;;;6.99;89.01;97806.91;30001;982;1863;-56
2021/10/27 02:24:56;;;;;;;;;;;;;;;6.97;89.03;97809.03;30001;982;1872;-60
2021/10/27 02:25:27;;;;;;;;;;;;;;;6.98;89.36;97813.37;30001;982;1876;-61
2021/10/27 02:25:58;;;;;;;;;;;;;;;6.98;89.39;97805.28;30001;982;1881;-61
2021/10/27 02:26:29;;;;;;;;;;;;;;;6.98;89.30;97806.09;30001;982;1877;-61
2021/10/27 02:26:59;;;;;;;;;;;;;;;6.99;89.16;97806.91;30001;982;1881;-61
2021/10/27 02:27:30;;;;;;;;;;;;;;;7.01;89.29;97810.19;30001;983;1876;-61
2021/10/27 02:28:01;;;;;;;;;;;;;;;7.00;88.97;97805.84;30001;983;1880;-61
2021/10/27 02:28:32;;;;;;;;;;;;;;;7.00;88.94;97803.16;30001;981;1863;-61
2021/10/27 02:29:02;;;;;;;;;;;;;;;7.00;89.24;97808.53;30001;983;1872;-60
2021/10/27 02:29:34;;;;;;;;;;;;;;;6.99;89.24;97805.03;30001;983;1876;-61
2021/10/27 02:30:05;;;;;;;;;;;;;;;6.99;89.16;97807.72;30001;983;1880;-56
2021/10/27 02:30:36;;;;;;;;;;;;;;;6.97;89.24;97804.44;30001;983;1877;-61
2021/10/27 02:31:07;;;;;;;;;;;;;;;6.96;88.95;97808.22;30001;983;1881;-61
2021/10/27 02:31:38;;;;;;;;;;;;;;;6.96;89.31;97807.41;30001;982;1876;-61
2021/10/27 02:32:09;;;;;;;;;;;;;;;6.98;88.95;97807.97;30001;982;1881;-61
2021/10/27 02:32:40;;;;;;;;;;;;;;;6.95;89.05;97809.28;30001;982;1877;-62
2021/10/27 02:33:10;;;;;;;;;;;;;;;6.93;88.95;97807.91;30001;982;1881;-61
2021/10/27 02:33:41;;;;;;;;;;;;;;;6.90;88.96;97808.41;30001;982;1863;-61
2021/10/27 02:34:13;;;;;;;;;;;;;;;6.88;89.46;97810.53;30001;982;1872;-60
2021/10/27 02:34:44;;;;;;;;;;;;;;;6.86;89.28;97809.97;30001;982;1877;-60
2021/10/27 02:35:14;;;;;;;;;;;;;;;6.87;89.46;97808.91;30001;983;1867;-57
2021/10/27 02:35:45;;;;;;;;;;;;;;;6.87;89.26;97806.19;30001;983;1867;-61
2021/10/27 02:36:16;;;;;;;;;;;;;;;6.89;89.14;97812.16;30001;983;1880;-61
2021/10/27 02:36:47;;;;;;;;;;;;;;;6.89;89.31;97809.47;30001;983;1876;-62
2021/10/27 02:37:17;;;;;;;;;;;;;;;6.89;89.16;97810.28;30001;983;1880;-61
2021/10/27 02:37:48;;;;;;;;;;;;;;;6.89;89.09;97812.16;30001;983;1876;-61
2021/10/27 02:38:19;;;;;;;;;;;;;;;6.90;89.42;97808.41;30001;983;1881;-61
2021/10/27 02:38:50;;;;;;;;;;;;;;;6.91;89.14;97804.66;30001;983;1876;-61
2021/10/27 02:39:21;;;;;;;;;;;;;;;6.92;88.97;97817.06;30001;982;1881;-61
2021/10/27 02:39:52;;;;;;;;;;;;;;;6.92;88.80;97808.97;30001;982;1863;-61
2021/10/27 02:40:23;;;;;;;;;;;;;;;6.92;88.84;97811.69;30001;959;1795;-60
2021/10/27 02:40:54;;;;;;;;;;;;;;;6.93;88.86;97813.31;30001;982;1863;-61
2021/10/27 02:41:25;;;;;;;;;;;;;;;6.93;88.87;97807.91;30001;982;1872;-61
2021/10/27 02:41:56;;;;;;;;;;;;;;;6.94;89.07;97817.62;30001;983;1876;-60
2021/10/27 02:42:27;;;;;;;;;;;;;;;6.96;89.15;97818.19;30001;983;1880;-61
2021/10/27 02:42:59;;;;;;;;;;;;;;;6.97;88.94;97817.12;30001;983;1876;-61
2021/10/27 02:43:30;;;;;;;;;;;;;;;6.98;89.17;97816.88;30001;983;1880;-61
2021/10/27 02:44:00;;;;;;;;;;;;;;;6.99;89.05;97812.31;30001;983;1778;-61
2021/10/27 02:44:31;;;;;;;;;;;;;;;6.97;88.99;97814.44;30001;983;1880;-60
2021/10/27 02:45:03;;;;;;;;;;;;;;;6.96;88.74;97813.59;30001;983;1863;-61
2021/10/27 02:45:33;;;;;;;;;;;;;;;6.95;89.06;97816.56;30001;983;1872;-60
2021/10/27 02:46:04;;;;;;;;;;;;;;;6.95;88.78;97814.66;30001;983;1876;-61
2021/10/27 02:46:36;;;;;;;;;;;;;;;6.95;89.01;97811.16;30001;983;1881;-61
2021/10/27 02:47:06;;;;;;;;;;;;;;;6.95;88.81;97816.56;30001;986;1867;-60
2021/10/27 02:47:38;;;;;;;;;;;;;;;6.96;88.92;97818.19;30001;982;1881;-61
2021/10/27 02:48:09;;;;;;;;;;;;;;;6.96;88.81;97815.50;30001;985;1867;-61
2021/10/27 02:48:40;;;;;;;;;;;;;;;6.96;88.92;97819.00;30001;982;1881;-60